Wilmar, Arkansas
Current Conditions -  °F | °C
As of 11:53 AM on Friday 19 Dec 2014 (Local Time) from KLLQ Reporting Station
Light Rain Light Rain  
Wind Chill: 42°   Ceiling: 4300
Heat Index: 45°   Visibility: 6mi
Dew Point: 41°   Wind: 6mph
Humidity: 86%   Direction: 10°N
Pressure: 30.23"   Gusts: NA
Location:  33.63°N, 91.93°W
Report Text: KLLQ 191753Z AUTO 01005KT 6SM -RA BR OVC043 07/05 A3023 RMK AO2 RAB12 PRESFR SLP238 P0000 60000 T00720050 10072 20056 50000
Loading
Personal Weather Stations






























Interactive Weather Map New forecast layout! Learn more

10-Day Weather Forecast

Advertisements
Track Severe Weather on mobile